Time;durP1;ratioP1;P1;durP2;ratioP2;P2;SDS_P1;SDS_P2;PMS_P1;PMS_P2;Temp;Humidity;BMP_temperature;BMP_pressure;BME280_temperature;BME280_humidity;BME280_pressure;Samples;Min_cycle;Max_cycle;Signal;HPM_P1;HPM_P2
2022/03/22 00:01:51;;;;;;;41.47;29.75;;;;;;;4.99;100.00;103233.84;6220665;23;20024;-76
2022/03/22 00:04:20;;;;;;;37.88;28.88;;;;;;;4.97;100.00;103240.69;6237756;23;20024;-77
2022/03/22 00:06:51;;;;;;;44.78;30.98;;;;;;;4.96;100.00;103244.09;6175133;23;20016;-77
2022/03/22 00:09:19;;;;;;;38.70;29.20;;;;;;;4.95;100.00;103239.66;6215478;23;20111;-77
2022/03/22 00:11:50;;;;;;;42.45;30.08;;;;;;;4.93;100.00;103241.25;6237546;23;20020;-76
2022/03/22 00:14:18;;;;;;;40.50;28.85;;;;;;;4.93;100.00;103245.59;6191743;23;20349;-77
2022/03/22 00:17:07;;;;;;;42.13;31.20;;;;;;;4.89;100.00;103234.94;6217143;23;20445;-77
2022/03/22 00:19:56;;;;;;;39.05;27.63;;;;;;;4.88;100.00;103240.09;6183597;23;20031;-77
2022/03/22 00:22:25;;;;;;;40.60;30.83;;;;;;;4.88;100.00;103234.84;6211619;23;20027;-77
2022/03/22 00:24:54;;;;;;;42.80;29.73;;;;;;;4.87;100.00;103240.88;6201638;23;20062;-77
2022/03/22 00:27:22;;;;;;;43.00;31.65;;;;;;;4.85;100.00;103238.16;6242752;23;20152;-76
2022/03/22 00:29:51;;;;;;;41.50;31.45;;;;;;;4.84;100.00;103246.81;6212980;23;20234;-77
2022/03/22 00:32:19;;;;;;;50.63;32.28;;;;;;;4.82;100.00;103243.22;6217069;23;20342;-76
2022/03/22 00:34:48;;;;;;;43.78;32.53;;;;;;;4.82;100.00;103247.50;6222166;23;20020;-77
2022/03/22 00:37:17;;;;;;;49.33;33.83;;;;;;;4.80;100.00;103243.88;6243867;23;20350;-76
2022/03/22 00:39:46;;;;;;;49.85;30.65;;;;;;;4.81;100.00;103245.72;6238471;23;20410;-77
2022/03/22 00:42:14;;;;;;;43.33;30.15;;;;;;;4.80;100.00;103244.81;6218163;23;20020;-77
2022/03/22 00:44:43;;;;;;;43.53;29.88;;;;;;;4.79;100.00;103242.09;6155253;23;20028;-77
2022/03/22 00:47:12;;;;;;;43.72;33.22;;;;;;;4.76;100.00;103237.56;6216960;23;20350;-78
2022/03/22 00:49:41;;;;;;;45.40;33.58;;;;;;;4.75;100.00;103234.88;6199175;23;20027;-78
2022/03/22 00:52:12;;;;;;;46.15;33.05;;;;;;;4.73;100.00;103226.94;6217816;23;20024;-78
2022/03/22 00:54:41;;;;;;;48.67;32.63;;;;;;;4.72;100.00;103235.56;6242056;23;20024;-78
2022/03/22 00:57:09;;;;;;;45.95;33.78;;;;;;;4.72;100.00;103243.38;6246367;23;20020;-77
2022/03/22 01:02:24;;;;;;;44.03;31.73;;;;;;;4.70;100.00;103239.78;6223600;23;20031;-77
2022/03/22 01:04:53;;;;;;;44.72;31.08;;;;;;;4.68;100.00;103242.28;6228306;23;20059;-77
2022/03/22 01:07:22;;;;;;;43.80;31.55;;;;;;;4.68;100.00;103234.44;6219787;23;20020;-78
2022/03/22 01:09:51;;;;;;;40.78;29.35;;;;;;;4.68;100.00;103236.16;6190032;23;20016;-77
2022/03/22 01:12:19;;;;;;;44.03;31.77;;;;;;;4.67;100.00;103242.22;6245978;23;20024;-77
2022/03/22 01:14:48;;;;;;;40.25;30.00;;;;;;;4.69;100.00;103236.25;6190176;23;20130;-77
2022/03/22 01:17:17;;;;;;;46.55;31.95;;;;;;;4.69;100.00;103233.66;6244858;23;20020;-77
2022/03/22 01:19:46;;;;;;;43.20;29.20;;;;;;;4.71;100.00;103233.75;6175965;23;20012;-77
2022/03/22 01:22:16;;;;;;;41.55;30.55;;;;;;;4.71;100.00;103231.16;6220500;23;20016;-77
2022/03/22 01:24:47;;;;;;;40.83;30.80;;;;;;;4.69;100.00;103236.25;6212185;23;20016;-78
2022/03/22 01:27:16;;;;;;;41.22;29.98;;;;;;;4.70;100.00;103231.94;6245853;23;20024;-78
2022/03/22 01:29:44;;;;;;;42.35;29.30;;;;;;;4.69;100.00;103236.25;6231472;23;20019;-77
2022/03/22 01:32:13;;;;;;;44.13;30.40;;;;;;;4.69;100.00;103231.03;6242486;23;20774;-78
2022/03/22 01:34:44;;;;;;;39.72;30.55;;;;;;;4.71;100.00;103228.53;6179831;23;20020;-78
2022/03/22 01:37:13;;;;;;;44.15;31.55;;;;;;;4.73;100.00;103220.81;6218172;23;20027;-78
2022/03/22 01:39:41;;;;;;;40.38;31.42;;;;;;;4.74;100.00;103227.81;6239760;23;20023;-78
2022/03/22 01:42:11;;;;;;;41.22;31.08;;;;;;;4.77;100.00;103218.47;6243133;23;20031;-78
2022/03/22 01:44:41;;;;;;;35.13;26.30;;;;;;;4.84;100.00;103212.84;6203709;23;20020;-77
2022/03/22 01:47:10;;;;;;;;;;;;;;;4.89;100.00;103213.13;6194566;23;20450;-77
2022/03/22 01:49:41;;;;;;;50.60;30.58;;;;;;;4.96;100.00;103222.28;6214447;23;20218;-78
2022/03/22 01:52:17;;;;;;;;;;;;;;;4.97;100.00;103214.56;6229128;23;20016;-76
2022/03/22 01:54:49;;;;;;;40.15;29.67;;;;;;;4.96;100.00;103212.72;6240132;23;19919;-78
2022/03/22 01:57:19;;;;;;;39.75;27.75;;;;;;;4.93;100.00;103217.75;6217038;23;20031;-78
2022/03/22 01:59:50;;;;;;;42.97;29.33;;;;;;;4.93;100.00;103215.13;6211174;23;20019;-78
2022/03/22 02:08:00;;;;;;;45.40;31.20;;;;;;;4.89;100.00;103203.56;6226031;23;20097;-78
2022/03/22 02:10:29;;;;;;;43.78;29.70;;;;;;;4.89;100.00;103200.06;6207341;23;20020;-76
2022/03/22 02:12:57;;;;;;;43.72;31.23;;;;;;;4.87;100.00;103197.34;6240618;23;20571;-79
2022/03/22 02:15:26;;;;;;;41.28;29.58;;;;;;;4.89;100.00;103200.06;6231894;23;20020;-76
2022/03/22 02:17:55;;;;;;;41.88;30.52;;;;;;;4.89;100.00;103203.56;6237892;23;20019;-76
2022/03/22 02:20:24;;;;;;;41.70;30.67;;;;;;;4.90;100.00;103201.91;6242136;23;20017;-76
2022/03/22 02:23:05;;;;;;;39.63;30.40;;;;;;;4.89;100.00;103197.47;6223360;23;20051;-76
2022/03/22 02:25:35;;;;;;;39.85;30.38;;;;;;;4.87;100.00;103204.28;6205723;23;20346;-76
2022/03/22 02:28:04;;;;;;;46.78;32.85;;;;;;;4.85;100.00;103198.97;6238704;23;20020;-78
2022/03/22 02:30:32;;;;;;;42.17;31.35;;;;;;;4.85;100.00;103195.47;6236372;23;20346;-78
2022/03/22 02:33:02;;;;;;;44.30;32.10;;;;;;;4.87;100.00;103189.53;6225884;23;20485;-76
2022/03/22 02:35:30;;;;;;;48.47;31.48;;;;;;;4.88;100.00;103200.91;6205925;23;20027;-79
2022/03/22 02:37:59;;;;;;;44.88;31.52;;;;;;;4.88;100.00;103200.91;6159408;23;20051;-76
2022/03/22 02:40:27;;;;;;;41.55;30.52;;;;;;;4.86;100.00;103192.94;6212593;23;20012;-78
2022/03/22 02:43:01;;;;;;;46.92;32.05;;;;;;;4.87;100.00;103194.75;6216619;23;20035;-78
2022/03/22 02:45:29;;;;;;;43.35;32.13;;;;;;;4.89;100.00;103202.69;6238365;23;20327;-78
2022/03/22 02:47:58;;;;;;;47.50;32.63;;;;;;;4.88;100.00;103203.50;6218758;23;20050;-78
2022/03/22 02:50:28;;;;;;;41.92;32.28;;;;;;;4.88;100.00;103200.91;6216794;23;20064;-78
2022/03/22 02:52:57;;;;;;;46.00;33.38;;;;;;;4.89;100.00;103207.91;6146969;23;20342;-78
2022/03/22 02:55:25;;;;;;;49.53;31.17;;;;;;;4.90;100.00;103201.91;6243536;23;20023;-78
2022/03/22 02:57:54;;;;;;;46.63;32.08;;;;;;;4.93;100.00;103207.28;6219384;23;20020;-78
2022/03/22 03:00:24;;;;;;;46.80;33.13;;;;;;;4.94;100.00;103201.28;6241756;23;20012;-78
2022/03/22 03:02:55;;;;;;;46.00;32.27;;;;;;;4.96;100.00;103201.38;6244161;23;20024;-78
2022/03/22 03:05:24;;;;;;;41.72;31.20;;;;;;;4.96;100.00;103197.06;6168264;23;20027;-78
2022/03/22 03:07:53;;;;;;;46.78;32.33;;;;;;;4.97;100.00;103195.34;6229766;23;20019;-78
2022/03/22 03:10:22;;;;;;;45.67;32.65;;;;;;;4.98;100.00;103191.94;6232715;23;20346;-76
2022/03/22 03:12:59;;;;;;;45.40;33.13;;;;;;;5.00;100.00;103199.03;6218856;23;20051;-76
2022/03/22 03:15:28;;;;;;;43.10;32.08;;;;;;;5.02;100.00;103202.66;6242446;23;20027;-76
2022/03/22 03:17:57;;;;;;;48.28;32.13;;;;;;;5.03;100.00;103196.63;6194534;23;20032;-76
2022/03/22 03:20:26;;;;;;;45.03;32.30;;;;;;;5.05;100.00;103189.81;6216725;23;20027;-76
2022/03/22 03:23:02;;;;;;;43.00;31.60;;;;;;;5.06;100.00;103194.19;6219631;23;20019;-76
2022/03/22 03:25:30;;;;;;;45.00;31.60;;;;;;;5.07;100.00;103203.88;6225628;23;20019;-79
2022/03/22 03:27:59;;;;;;;45.40;30.80;;;;;;;5.06;100.00;103198.53;6235769;23;20024;-76
2022/03/22 03:30:27;;;;;;;49.00;33.88;;;;;;;5.02;100.00;103210.50;6154884;23;20017;-79
2022/03/22 03:32:56;;;;;;;44.03;32.08;;;;;;;4.99;100.00;103202.50;6244702;23;20031;-76
2022/03/22 03:35:25;;;;;;;47.25;32.33;;;;;;;4.99;100.00;103199.88;6157110;23;20027;-79
2022/03/22 03:37:53;;;;;;;47.22;32.88;;;;;;;4.98;100.00;103200.66;6189342;23;20031;-76
2022/03/22 03:41:53;;;;;;;47.85;33.70;;;;;;;4.98;100.00;103203.28;6202122;23;20013;-79
2022/03/22 03:43:10;;;;;;;41.85;30.25;;;;;;;4.98;100.00;103202.38;6241439;23;20035;-76
2022/03/22 03:48:26;;;;;;;46.03;30.60;;;;;;;4.91;100.00;103200.19;6163691;23;20031;-76
2022/03/22 03:50:54;;;;;;;42.85;31.50;;;;;;;4.89;100.00;103210.53;6192034;23;20020;-78
2022/03/22 03:53:23;;;;;;;43.67;32.08;;;;;;;4.87;100.00;103219.97;6171922;23;20102;-76
2022/03/22 03:55:52;;;;;;;43.83;32.40;;;;;;;4.86;100.00;103218.19;6202572;23;20024;-78
2022/03/22 03:58:20;;;;;;;49.38;32.78;;;;;;;4.83;100.00;103217.97;6216766;23;20020;-78
2022/03/22 04:00:49;;;;;;;44.33;31.60;;;;;;;4.82;100.00;103224.00;6245900;23;20023;-78
2022/03/22 04:03:17;;;;;;;40.28;30.98;;;;;;;4.80;100.00;103223.00;6222590;23;20031;-78
2022/03/22 04:05:46;;;;;;;47.17;32.78;;;;;;;4.77;100.00;103223.72;6245352;23;20119;-78
2022/03/22 04:08:15;;;;;;;43.58;30.58;;;;;;;4.78;100.00;103227.22;6247448;23;20020;-78
2022/03/22 04:10:43;;;;;;;40.90;30.70;;;;;;;4.81;100.00;103227.44;6206854;23;20493;-77
2022/03/22 04:13:12;;;;;;;40.40;30.02;;;;;;;4.85;100.00;103232.03;6237568;23;20012;-77
2022/03/22 04:15:41;;;;;;;42.30;29.23;;;;;;;4.90;100.00;103225.41;6220300;23;20038;-77
2022/03/22 04:18:11;;;;;;;40.95;30.13;;;;;;;4.94;100.00;103221.28;6188601;23;20354;-77
2022/03/22 04:20:39;;;;;;;40.28;30.10;;;;;;;4.96;100.00;103231.03;6218484;23;20237;-77
2022/03/22 04:23:10;;;;;;;36.92;27.85;;;;;;;4.96;100.00;103228.41;6223269;23;20410;-77
2022/03/22 04:25:42;;;;;;;43.60;30.52;;;;;;;4.96;100.00;103227.50;6208110;23;20020;-77
2022/03/22 04:33:45;;;;;;;45.10;29.30;;;;;;;4.95;100.00;103226.59;6224958;23;20016;-77
2022/03/22 04:36:13;;;;;;;39.88;27.25;;;;;;;4.92;100.00;103233.34;6222753;23;20020;-77
2022/03/22 04:38:42;;;;;;;46.30;29.45;;;;;;;4.91;100.00;103236.75;6245182;23;20516;-77
2022/03/22 04:41:11;;;;;;;40.97;29.73;;;;;;;4.89;100.00;103237.53;6184495;23;20012;-77
2022/03/22 04:43:42;;;;;;;38.03;27.30;;;;;;;4.89;100.00;103236.66;6219872;23;20142;-77
2022/03/22 04:46:11;;;;;;;38.22;29.33;;;;;;;4.88;100.00;103229.63;6220041;23;20042;-77
2022/03/22 04:48:42;;;;;;;39.70;30.00;;;;;;;4.88;100.00;103222.69;6183474;23;20230;-77
2022/03/22 04:56:49;;;;;;;43.55;27.60;;;;;;;4.86;100.00;103231.25;6223816;23;20047;-78
2022/03/22 04:59:24;;;;;;;35.30;26.35;;;;;;;4.85;100.00;103229.44;6219237;23;21006;-78
2022/03/22 05:01:52;;;;;;;38.15;28.60;;;;;;;4.84;100.00;103232.84;6211832;23;20009;-78
2022/03/22 05:04:21;;;;;;;38.88;29.00;;;;;;;4.82;100.00;103232.75;6218564;23;20016;-78
2022/03/22 05:06:49;;;;;;;37.13;27.70;;;;;;;4.80;100.00;103243.88;6217794;23;20370;-76
2022/03/22 05:09:18;;;;;;;42.95;29.40;;;;;;;4.78;100.00;103245.50;6244415;23;20083;-78
2022/03/22 05:11:47;;;;;;;42.50;29.02;;;;;;;4.75;100.00;103245.31;6203805;23;20604;-78
2022/03/22 05:14:15;;;;;;;40.45;29.73;;;;;;;4.73;100.00;103245.22;6243931;23;20016;-78
2022/03/22 05:16:45;;;;;;;35.65;27.42;;;;;;;4.74;100.00;103246.09;6207956;23;20462;-76
2022/03/22 05:19:14;;;;;;;28.45;21.35;;;;;;;4.74;100.00;103251.34;6186460;23;20019;-76
2022/03/22 05:21:43;;;;;;;37.13;26.77;;;;;;;4.72;100.00;103246.00;6242341;23;20627;-78
2022/03/22 05:24:12;;;;;;;37.95;28.58;;;;;;;4.72;100.00;103252.94;6220074;23;20023;-78
2022/03/22 05:26:41;;;;;;;46.85;29.67;;;;;;;4.74;100.00;103246.09;6203686;23;20226;-78
2022/03/22 05:29:09;;;;;;;45.45;30.23;;;;;;;4.75;100.00;103248.81;6245448;23;20031;-78
2022/03/22 05:31:38;;;;;;;49.13;29.83;;;;;;;4.81;100.00;103253.56;6216559;23;20525;-79
2022/03/22 05:34:07;;;;;;;38.60;28.73;;;;;;;4.84;100.00;103253.75;6196589;23;20023;-78
2022/03/22 05:36:35;;;;;;;35.72;27.48;;;;;;;4.84;100.00;103254.66;6239295;23;20555;-76
2022/03/22 05:39:04;;;;;;;38.17;28.40;;;;;;;4.84;100.00;103257.25;6247868;23;20350;-78
2022/03/22 05:41:32;;;;;;;42.05;28.17;;;;;;;4.87;100.00;103257.44;6214927;23;20257;-78
2022/03/22 05:44:01;;;;;;;41.42;28.85;;;;;;;4.88;100.00;103268.81;6195258;23;20031;-78
2022/03/22 05:46:31;;;;;;;36.92;28.33;;;;;;;4.89;100.00;103261.06;6244027;23;20020;-76
2022/03/22 05:49:00;;;;;;;38.45;27.98;;;;;;;4.89;100.00;103261.06;6222370;23;20345;-77
2022/03/22 05:51:28;;;;;;;41.70;28.20;;;;;;;4.90;100.00;103267.22;6215642;23;20015;-77
2022/03/22 05:53:57;;;;;;;43.45;30.75;;;;;;;4.90;100.00;103264.59;6248523;23;20031;-78
2022/03/22 05:56:25;;;;;;;39.63;28.92;;;;;;;4.91;100.00;103270.72;6237194;23;20027;-77
2022/03/22 05:58:54;;;;;;;39.30;27.55;;;;;;;4.95;100.00;103272.72;6170315;23;20362;-77
2022/03/22 06:01:24;;;;;;;37.80;27.05;;;;;;;4.97;100.00;103272.03;6193232;23;20019;-77
2022/03/22 06:03:52;;;;;;;35.85;27.55;;;;;;;5.02;100.00;103268.00;6161538;23;20038;-77
2022/03/22 06:06:21;;;;;;;39.30;29.42;;;;;;;5.06;100.00;103269.09;6246350;23;20020;-77
2022/03/22 06:08:50;;;;;;;42.20;28.30;;;;;;;5.08;100.00;103271.03;6189920;23;20446;-77
2022/03/22 06:11:19;;;;;;;38.85;28.60;;;;;;;5.12;100.00;103277.31;6219826;23;20623;-77
2022/03/22 06:13:47;;;;;;;42.88;27.77;;;;;;;5.14;100.00;103278.34;6147101;23;20024;-77
2022/03/22 06:16:16;;;;;;;37.45;26.75;;;;;;;5.18;100.00;103279.44;6219165;23;20047;-77
2022/03/22 06:18:45;;;;;;;40.10;27.80;;;;;;;5.18;100.00;103279.44;6217618;23;20379;-77
2022/03/22 06:21:14;;;;;;;40.63;28.17;;;;;;;5.19;100.00;103286.47;6218317;23;20277;-77
2022/03/22 06:23:42;;;;;;;35.20;26.98;;;;;;;5.21;100.00;103279.63;6240301;23;20020;-77
2022/03/22 06:26:11;;;;;;;37.17;27.15;;;;;;;5.23;100.00;103283.25;6219464;23;20405;-77
2022/03/22 06:28:39;;;;;;;51.88;31.90;;;;;;;5.27;100.00;103280.03;6203483;23;20493;-77
2022/03/22 06:31:08;;;;;;;36.03;26.35;;;;;;;5.32;100.00;103275.09;6165811;23;20024;-79
2022/03/22 06:33:38;;;;;;;43.08;28.45;;;;;;;5.38;100.00;103284.22;6184661;23;20023;-77
2022/03/22 06:36:10;;;;;;;48.08;27.90;;;;;;;5.42;100.00;103286.22;6215914;23;20138;-77
2022/03/22 06:38:39;;;;;;;37.03;27.48;;;;;;;5.46;100.00;103285.63;6239832;23;20031;-77
2022/03/22 06:41:07;;;;;;;42.00;28.50;;;;;;;5.52;100.00;103294.66;6212714;23;20229;-77
2022/03/22 06:43:36;;;;;;;41.05;28.88;;;;;;;5.57;100.00;103283.66;6126095;23;20016;-77
2022/03/22 06:46:04;;;;;;;40.58;28.00;;;;;;;5.62;100.00;103283.97;6241394;23;20020;-77
2022/03/22 06:48:33;;;;;;;43.33;29.27;;;;;;;5.66;100.00;103291.19;6171643;23;20032;-77
2022/03/22 06:51:02;;;;;;;36.70;26.70;;;;;;;5.70;100.00;103282.72;6162677;23;20034;-77
2022/03/22 06:53:31;;;;;;;36.72;26.77;;;;;;;5.77;100.00;103292.78;6213697;23;20197;-77
2022/03/22 06:56:00;;;;;;;35.85;27.45;;;;;;;5.84;100.00;103299.28;6158895;23;20350;-77
2022/03/22 06:58:30;;;;;;;41.65;29.17;;;;;;;5.93;100.00;103293.72;6230795;23;20020;-78
2022/03/22 07:00:59;;;;;;;40.75;28.23;;;;;;;6.01;100.00;103300.34;6168126;23;20253;-77
2022/03/22 07:03:27;;;;;;;34.33;27.50;;;;;;;6.13;100.00;103301.09;6186238;23;20024;-77
2022/03/22 07:05:56;;;;;;;38.83;27.02;;;;;;;6.31;100.00;103300.41;6191020;23;20493;-79
2022/03/22 07:08:28;;;;;;;37.30;26.90;;;;;;;6.50;100.00;103295.44;6195594;23;20031;-79
2022/03/22 07:13:45;;;;;;;37.63;27.60;;;;;;;6.81;100.00;103299.88;6199809;23;20013;-79
2022/03/22 07:16:14;;;;;;;45.00;31.80;;;;;;;6.95;100.00;103298.03;6211596;23;20016;-78
2022/03/22 07:18:43;;;;;;;35.45;26.45;;;;;;;7.08;100.00;103297.03;6236542;23;20413;-79
2022/03/22 07:21:14;;;;;;;33.40;26.70;;;;;;;7.19;100.00;103303.78;6179028;23;20035;-79
2022/03/22 07:23:43;;;;;;;39.72;27.45;;;;;;;7.37;100.00;103307.44;6195503;23;20020;-79
2022/03/22 07:26:12;;;;;;;36.28;26.15;;;;;;;7.59;100.00;103303.38;6208875;23;20457;-78
2022/03/22 07:28:40;;;;;;;35.50;26.52;;;;;;;7.84;100.00;103304.69;6219644;23;20029;-79
2022/03/22 07:31:09;;;;;;;38.17;26.90;;;;;;;8.05;100.00;103311.06;6229767;23;20012;-79
2022/03/22 07:33:38;;;;;;;36.00;26.92;;;;;;;8.24;100.00;103325.19;6218906;23;20016;-79
2022/03/22 07:36:07;;;;;;;33.78;26.33;;;;;;;8.38;100.00;103313.69;6212823;23;20031;-79
2022/03/22 07:38:35;;;;;;;36.60;27.88;;;;;;;8.51;100.00;103320.50;6172915;23;20020;-79
2022/03/22 07:41:04;;;;;;;35.97;27.33;;;;;;;8.63;100.00;103320.22;6182400;23;20246;-79
2022/03/22 07:43:35;;;;;;;33.78;28.58;;;;;;;8.81;100.00;103326.41;6221919;23;20025;-79
2022/03/22 07:46:08;;;;;;;34.85;26.92;;;;;;;9.05;100.00;103324.06;6156876;23;20249;-79
2022/03/22 07:48:36;;;;;;;39.22;27.65;;;;;;;9.28;100.00;103330.47;6219183;23;20346;-79
2022/03/22 07:53:55;;;;;;;37.80;28.65;;;;;;;9.68;100.00;103326.19;6217546;23;20021;-78
2022/03/22 07:56:24;;;;;;;34.88;26.65;;;;;;;9.88;100.00;103320.09;6214095;23;20020;-78
2022/03/22 07:59:00;;;;;;;34.53;26.83;;;;;;;10.08;100.00;103321.00;6211392;23;20144;-77
2022/03/22 08:01:28;;;;;;;32.67;26.33;;;;;;;10.28;100.00;103323.63;6176348;23;20016;-79
2022/03/22 08:03:59;;;;;;;31.33;26.88;;;;;;;10.48;100.00;103330.69;6210348;23;20231;-79
2022/03/22 08:06:28;;;;;;;37.60;26.05;;;;;;;10.69;100.00;103324.53;6228976;23;20029;-79
2022/03/22 08:08:59;;;;;;;38.72;25.65;;;;;;;10.90;100.00;103328.06;6207094;23;20028;-77
2022/03/22 08:11:28;;;;;;;32.67;27.17;;;;;;;11.06;100.00;103332.25;6236960;23;20012;-77
2022/03/22 08:13:59;;;;;;;33.60;26.35;;;;;;;11.22;100.00;103328.47;6209340;23;20366;-78
2022/03/22 08:16:28;;;;;;;34.78;25.73;;;;;;;11.38;100.00;103327.38;6207705;23;20028;-78
2022/03/22 08:18:57;;;;;;;29.73;25.85;;;;;;;11.54;100.00;103338.53;6240784;23;20289;-78
2022/03/22 08:21:25;;;;;;;36.95;26.58;;;;;;;11.66;99.13;103331.06;6245081;23;20020;-78
2022/03/22 08:23:55;;;;;;;38.92;27.13;;;;;;;11.80;98.74;103326.31;6210117;23;20023;-78
2022/03/22 08:26:24;;;;;;;30.35;26.10;;;;;;;11.93;97.81;103335.63;6191462;23;20030;-78
2022/03/22 08:28:55;;;;;;;37.65;26.83;;;;;;;12.08;98.79;103328.28;6201554;23;20024;-78
2022/03/22 08:31:24;;;;;;;30.98;25.45;;;;;;;12.24;97.37;103338.56;6205170;23;20017;-78
2022/03/22 08:33:56;;;;;;;30.70;26.63;;;;;;;12.36;96.07;103335.47;6214791;23;20020;-78
2022/03/22 08:36:25;;;;;;;35.20;25.30;;;;;;;12.47;95.39;103339.38;6219326;23;20020;-78
2022/03/22 08:38:54;;;;;;;33.97;25.80;;;;;;;12.62;94.79;103332.81;6225054;23;20032;-78
2022/03/22 08:41:27;;;;;;;33.67;26.25;;;;;;;12.70;92.69;103339.25;6241313;23;20024;-78
2022/03/22 08:43:57;;;;;;;34.58;26.73;;;;;;;12.77;91.72;103343.91;6224873;23;20037;-78
2022/03/22 08:46:26;;;;;;;32.22;27.38;;;;;;;12.80;90.31;103344.03;6198622;23;20027;-78
2022/03/22 08:48:55;;;;;;;33.10;25.27;;;;;;;12.84;90.06;103339.75;6195126;23;20020;-78
2022/03/22 08:51:24;;;;;;;28.88;25.25;;;;;;;12.90;89.65;103341.69;6216735;23;20017;-78
2022/03/22 08:53:54;;;;;;;30.52;24.90;;;;;;;12.99;89.80;103342.00;6181661;23;20442;-78
2022/03/22 08:56:22;;;;;;;35.28;24.70;;;;;;;13.09;89.15;103333.50;6230456;23;20027;-78
2022/03/22 08:58:54;;;;;;;31.38;25.50;;;;;;;13.17;88.11;103326.69;6215900;23;20025;-78
2022/03/22 09:01:27;;;;;;;32.38;24.95;;;;;;;13.27;87.05;103330.56;6195849;23;20027;-78
2022/03/22 09:06:47;;;;;;;31.02;23.98;;;;;;;13.50;85.46;103331.31;6241997;23;20012;-79
2022/03/22 09:09:23;;;;;;;32.25;24.98;;;;;;;13.58;84.23;103328.91;6187408;23;20032;-77
2022/03/22 09:11:53;;;;;;;33.88;27.52;;;;;;;13.60;81.97;103325.44;6125703;23;20028;-77
2022/03/22 09:14:22;;;;;;;34.75;26.20;;;;;;;13.61;81.92;103324.59;6189163;23;20351;-77
2022/03/22 09:16:51;;;;;;;33.35;24.70;;;;;;;13.64;81.04;103329.97;6212811;23;20457;-77
2022/03/22 09:19:19;;;;;;;33.40;25.48;;;;;;;13.69;81.23;103319.50;6202363;23;20024;-77
2022/03/22 09:21:48;;;;;;;34.58;25.95;;;;;;;13.73;80.03;103318.75;6193816;23;20024;-77
2022/03/22 09:24:17;;;;;;;34.47;25.25;;;;;;;13.77;80.27;103317.09;6177274;23;20017;-77
2022/03/22 09:26:45;;;;;;;33.20;26.13;;;;;;;13.77;79.65;103314.44;6214280;23;20020;-77
2022/03/22 09:29:14;;;;;;;34.50;23.27;;;;;;;13.75;78.96;103316.16;6210984;23;20032;-77
2022/03/22 09:31:43;;;;;;;33.75;24.58;;;;;;;13.74;78.38;103317.91;6237949;23;20021;-77
2022/03/22 09:34:12;;;;;;;34.13;24.17;;;;;;;13.74;77.08;103315.25;6145238;23;20020;-77
2022/03/22 09:36:41;;;;;;;31.00;24.57;;;;;;;13.76;77.55;103312.63;6182481;23;20055;-77
2022/03/22 09:39:11;;;;;;;36.30;24.63;;;;;;;13.79;76.84;103312.72;6185932;23;20255;-77
2022/03/22 09:41:42;;;;;;;31.55;24.38;;;;;;;13.80;77.13;103315.44;6192078;23;20217;-77
2022/03/22 09:44:16;;;;;;;32.70;24.42;;;;;;;13.86;77.21;103316.47;6197766;23;20020;-77
2022/03/22 09:46:48;;;;;;;31.42;22.58;;;;;;;13.91;75.60;103318.38;6188173;23;20013;-77
2022/03/22 09:49:17;;;;;;;31.65;23.83;;;;;;;13.94;76.64;103315.81;6202904;23;20024;-77
2022/03/22 09:51:49;;;;;;;29.88;23.38;;;;;;;13.95;75.35;103307.03;6218966;23;20031;-77
2022/03/22 09:54:19;;;;;;;34.47;23.90;;;;;;;13.98;75.92;103309.75;6207653;23;20017;-79
2022/03/22 09:56:53;;;;;;;30.80;23.35;;;;;;;14.01;75.84;103309.84;6238658;23;20024;-78
2022/03/22 09:59:21;;;;;;;;;;;;;;;14.08;76.40;103307.34;6204754;23;20031;-77
2022/03/22 10:01:50;;;;;;;33.85;23.67;;;;;;;14.11;76.74;103307.44;6237937;23;19916;-77
2022/03/22 10:04:18;;;;;;;36.08;25.05;;;;;;;14.18;77.19;103314.72;6204707;23;20027;-77
2022/03/22 10:06:47;;;;;;;34.80;25.55;;;;;;;14.23;76.81;103310.44;6191246;23;20039;-77
2022/03/22 10:09:36;;;;;;;32.10;24.05;;;;;;;14.31;76.81;103311.56;6151782;23;20024;-77
2022/03/22 10:12:13;;;;;;;39.55;24.98;;;;;;;14.40;76.85;103306.50;6177805;23;20025;-77
2022/03/22 10:14:41;;;;;;;33.00;24.15;;;;;;;14.48;75.49;103304.03;6209526;23;20233;-77
2022/03/22 10:17:20;;;;;;;34.47;24.00;;;;;;;14.52;74.98;103307.69;6208310;23;20023;-77
2022/03/22 10:19:51;;;;;;;30.88;22.27;;;;;;;14.59;75.01;103305.25;6220522;23;20350;-77
2022/03/22 10:22:24;;;;;;;35.13;23.27;;;;;;;14.67;74.24;103302.78;6202480;23;20335;-77
2022/03/22 10:24:57;;;;;;;30.35;22.40;;;;;;;14.69;74.10;103298.41;6155711;23;20028;-77
2022/03/22 10:27:29;;;;;;;32.90;24.42;;;;;;;14.75;73.92;103302.97;6241098;23;20017;-77
2022/03/22 10:30:18;;;;;;;30.67;24.38;;;;;;;14.80;73.65;103296.00;6227979;23;20028;-77
2022/03/22 10:32:51;;;;;;;44.63;23.05;;;;;;;14.86;74.05;103295.25;6235445;23;20027;-77
2022/03/22 10:35:28;;;;;;;36.95;23.83;;;;;;;14.91;74.36;103291.84;6240555;23;20016;-77
2022/03/22 10:38:00;;;;;;;35.05;24.83;;;;;;;14.99;74.79;103297.38;6186587;23;20032;-77
2022/03/22 10:40:30;;;;;;;31.20;22.85;;;;;;;15.07;74.17;103292.25;6236251;23;20020;-77
2022/03/22 10:43:04;;;;;;;37.40;23.42;;;;;;;15.14;73.83;103289.78;6225674;23;20016;-78
2022/03/22 10:45:46;;;;;;;39.35;26.10;;;;;;;15.18;74.14;103291.63;6215970;23;20446;-77
2022/03/22 10:48:30;;;;;;;36.88;25.95;;;;;;;15.24;72.37;103293.53;6238998;23;20035;-77
2022/03/22 10:50:59;;;;;;;44.20;25.38;;;;;;;15.29;73.10;103288.31;6192472;23;20234;-77
2022/03/22 10:53:30;;;;;;;39.87;25.23;;;;;;;15.36;73.51;103295.56;6233318;23;20103;-78
2022/03/22 10:56:03;;;;;;;44.63;25.75;;;;;;;15.45;72.73;103294.88;6202746;23;20371;-78
2022/03/22 10:58:32;;;;;;;52.72;27.05;;;;;;;15.49;72.86;103279.03;6213827;23;20020;-77
2022/03/22 11:01:03;;;;;;;34.58;25.00;;;;;;;15.55;72.73;103289.78;6213540;23;20020;-78
2022/03/22 11:03:32;;;;;;;34.03;25.08;;;;;;;15.61;72.63;103283.69;6220876;23;20024;-78
2022/03/22 11:06:04;;;;;;;38.60;25.88;;;;;;;15.69;73.89;103286.50;6213350;23;20206;-78
2022/03/22 11:08:35;;;;;;;33.30;24.17;;;;;;;15.76;72.05;103291.13;6201273;23;20031;-78
2022/03/22 11:11:06;;;;;;;35.60;25.85;;;;;;;15.77;72.46;103282.31;6239966;23;20016;-78
2022/03/22 11:13:36;;;;;;;43.15;26.65;;;;;;;15.79;72.40;103286.78;6244049;23;20027;-78
2022/03/22 11:16:07;;;;;;;32.75;24.52;;;;;;;15.82;71.99;103280.63;6234107;23;20043;-78
2022/03/22 11:18:35;;;;;;;;;;;;;;;15.84;72.05;103284.22;6237179;23;20020;-77
2022/03/22 11:21:05;;;;;;;44.38;27.65;;;;;;;15.85;71.74;103278.03;6157784;23;19915;-77
2022/03/22 11:23:33;;;;;;;44.37;27.00;;;;;;;15.84;71.07;103280.66;6200861;23;20138;-77
2022/03/22 11:26:10;;;;;;;47.50;27.58;;;;;;;15.83;72.04;103281.53;6245530;23;20247;-77
2022/03/22 11:28:40;;;;;;;40.75;27.23;;;;;;;15.88;71.84;103282.50;6240806;23;20020;-77
2022/03/22 11:31:13;;;;;;;41.63;27.58;;;;;;;15.92;72.63;103271.97;6222112;23;20035;-77
2022/03/22 11:34:09;;;;;;;36.90;27.25;;;;;;;16.00;72.37;103279.22;6213653;23;20035;-77
2022/03/22 11:36:49;;;;;;;34.42;27.48;;;;;;;16.06;73.20;103282.88;6173828;23;20016;-77
2022/03/22 11:39:19;;;;;;;;;;;;;;;16.14;72.87;103272.38;6215191;23;20028;-77
2022/03/22 11:44:39;;;;;;;37.80;26.88;;;;;;;16.25;73.63;103260.16;6183211;23;20402;-77
2022/03/22 11:47:17;;;;;;;34.45;26.52;;;;;;;16.35;73.71;103271.84;6180588;23;20021;-77
2022/03/22 11:49:58;;;;;;;36.55;28.80;;;;;;;16.40;73.38;103259.53;6173025;23;20143;-77
2022/03/22 11:52:35;;;;;;;38.38;28.08;;;;;;;16.44;72.78;103264.03;6170970;23;20028;-77
2022/03/22 11:55:22;;;;;;;34.40;25.40;;;;;;;16.48;72.47;103265.00;6208567;23;20013;-77
2022/03/22 11:57:58;;;;;;;36.42;27.58;;;;;;;16.55;72.09;103259.78;6177877;23;20043;-77